Cees F. Kamminga

Cees F. Kamminga

Statistiques 2020

  • Courses courues : 7
  • Nb de victoires : 1
  • Nb de places : 4
  • Écart gagnant : 3
  • Réussite à la gagne : 14%
  • Réussite à la place : 57%
Musique : 2a 3a 5a 1a 2a 6a 4a (19) 2a Da Da 7a 4a 2a Da 1a 5a Da 0a
DateRangCatégorieAlloc.Dist.HippodromeChevalRed. KmSpé.
14/02/20 2 Trot 2 000€ 2 100m Hol-Wolvega Coumba 1'16"2 Attelé
14/02/20 3 Trot 6 000€ 2 100m Hol-Wolvega Do You Love Me 1'14"1 Attelé
14/02/20 5 Trot 5 500€ 2 100m Hol-Wolvega Dean Les Jarriais 1'15"4 Attelé
10/01/20 1 Trot 10 000€ 2 600m Hol-Wolvega Do You Love Me 1'15"8 Attelé
03/01/20 2 Trot 2 000€ 2 120m Hol-Wolvega Girlofmanymissions 1'16"8 Attelé
03/01/20 6 Trot 9 000€ 2 600m Hol-Wolvega Tell Me No Lies 1'14"5 Attelé
03/01/20 4 Trot 5 500€ 2 600m Hol-Wolvega Dean Les Jarriais 1'16"5 Attelé
27/12/19 2 Trot 10 000€ 2 600m Hol-Wolvega Do You Love Me 1'15"6 Attelé
20/12/19 D Trot 32 000€ 1 609m Hol-Wolvega The Natural Attelé
13/12/19 D Trot 10 000€ 2 600m Hol-Wolvega Eagle Attelé
22/11/19 7 Trot 6 000€ 3 120m Hol-Wolvega Do You Love Me 1'17"2 Attelé
14/11/19 4 Trot 2 000€ 2 200m Ger-Hamburg East Wind Br 1'18"3 Attelé
14/11/19 2 Trot 4 500€ 2 240m Ger-Hamburg Do You Love Me 1'18"6 Attelé
14/11/19 D Trot 4 500€ 1 680m Ger-Hamburg Jetway Fortuna Attelé
14/11/19 1 Trot 4 500€ 2 200m Ger-Hamburg Girlofmanymissions 1'16"6 Attelé
08/11/19 5 Trot 15 000€ 2 100m Hol-Wolvega Very Impressive S 1'14"2 Attelé
08/11/19 D Trot 3 000€ 2 600m Hol-Wolvega Eagle Attelé
08/11/19 0 Trot 8 000€ 3 120m Hol-Wolvega Do You Love Me 1'17"4 Attelé
24/10/19 3 Trot 10 000€ 2 100m Hol-Wolvega Very Impressive S 1'13"8 Attelé
24/10/19 D Trot 6 000€ 2 600m Hol-Wolvega Eagle Attelé
24/10/19 8 Trot 10 000€ 2 100m Hol-Wolvega Do You Love Me 1'19"5 Attelé
18/10/19 5 Trot 6 000€ 2 100m Hol-Wolvega Bonefish Life 1'16"9 Attelé
13/10/19 4 Trot 20 000€ 1 680m Ger-Hamburg Tell Me No Lies 1'12"1 Attelé
06/10/19 4 Trot 23 000€ 2 550m Reims Bonefish Life 1'14"7 Attelé
29/09/19 4 Trot 23 000€ 2 550m Reims Bonefish Life 1'15"7 Attelé
27/09/19 9 Trot 4 000€ 2 100m Hol-Wolvega French Kiss Hr 1'18"6 Attelé
27/09/19 D Trot 10 000€ 2 600m Hol-Wolvega Eagle Attelé
22/09/19 6 Trot 1 900m Ger-Gelsenkirchen Jetway Fortuna 1'14"5 Attelé
18/09/19 6 Trot 23 000€ 2 700m Le Croise Laroche Eagle 1'14"5 Attelé
18/09/19 9 Trot 26 000€ 2 850m Le Croise Laroche Bonefish Life 1'15"5 Attelé
13/09/19 5 Trot 6 000€ 2 100m Hol-Wolvega Do You Love Me 1'15"5 Attelé
01/09/19 D Trot 2 000€ 2 100m Hol-Wolvega French Kiss Hr Attelé
25/08/19 2 Trot 19 000€ 2 625m Le Touquet Bonefish Life Attelé
15/08/19 1 Mixte 3 000€ 2 800m Duindigt Bonefish Life 1'20"1 Attelé
15/08/19 11 Mixte 3 000€ 2 000m Duindigt Jacky Stardust 1'20"1 Attelé
04/08/19 4 Trot 25 000€ 1 900m Ger-Gelsenkirchen Very Impressive S 1'13"9 Attelé
29/07/19 6 Trot 24 000€ 2 775m La Capelle Bonefish Life 1'15"4 Attelé lire

Longtemps en retrait, a conclu fort honorablement.

27/07/19 D Trot 37 000€ 2 150m Enghien Soisy Eagle Attelé lire

Après avoir figuré, s'est accroché avec un rival dans le tournant final et a pris le galop.

26/07/19 6 Trot 2 200€ 2 100m Hol-Wolvega Jacky Stardust 1'17"4 Attelé
26/07/19 D Trot 5 000€ 3 100m Hol-Wolvega Fhelyo de Doma Attelé
23/07/19 3 Trot 2 000€ 2 100m Hol-Wolvega French Kiss Hr 1'16"3 Attelé
21/07/19 3 Trot 1 900m Ger-Gelsenkirchen Very Impressive S 1'15"9 Attelé
20/07/19 2 Trot 1 900m Ger-Gelsenkirchen Jetway Fortuna 1'15"9 Attelé
19/07/19 1 Trot 3 000€ 3 100m Hol-Wolvega Eagle 1'17"2 Attelé
19/07/19 D Trot 2 000€ 2 100m Hol-Wolvega Jacky Stardust Attelé
19/07/19 8 Trot 5 000€ 2 600m Hol-Wolvega Fhelyo de Doma 1'21"1 Attelé
10/07/19 7 Trot 4 500€ 2 000m Ger-Gelsenkirchen French Connection 1'19"0 Attelé
10/07/19 4 Trot 4 500€ 2 000m Ger-Gelsenkirchen Jetway Fortuna 1'16"7 Attelé
07/07/19 9 Trot 2 300m HOL-GRONINGEN Jeanine Go 1'21"6 Attelé
30/06/19 0 Trot 1 900m Ger-Gelsenkirchen Fair Winner Attelé